sensor_id;sensor_type;location;lat;lon;timestamp;temperature;humidity
13744;DHT22;6943;52.368;9.966;2023-02-15T00:01:15;2.30;99.90
13744;DHT22;6943;52.368;9.966;2023-02-15T00:03:41;2.30;99.90
13744;DHT22;6943;52.368;9.966;2023-02-15T00:06:06;2.20;99.90
13744;DHT22;6943;52.368;9.966;2023-02-15T00:08:32;2.30;99.90
13744;DHT22;6943;52.368;9.966;2023-02-15T00:11:12;2.30;99.90
13744;DHT22;6943;52.368;9.966;2023-02-15T00:13:38;2.30;99.90
13744;DHT22;6943;52.368;9.966;2023-02-15T00:16:09;2.40;99.90
13744;DHT22;6943;52.368;9.966;2023-02-15T00:18:35;2.50;99.90
13744;DHT22;6943;52.368;9.966;2023-02-15T00:21:09;2.80;99.90
13744;DHT22;6943;52.368;9.966;2023-02-15T00:23:35;2.90;99.90
13744;DHT22;6943;52.368;9.966;2023-02-15T00:26:09;2.90;99.90
13744;DHT22;6943;52.368;9.966;2023-02-15T00:28:35;3.00;99.90
13744;DHT22;6943;52.368;9.966;2023-02-15T00:31:10;3.10;99.90
13744;DHT22;6943;52.368;9.966;2023-02-15T00:33:37;3.00;99.90
13744;DHT22;6943;52.368;9.966;2023-02-15T00:36:03;3.00;99.90
13744;DHT22;6943;52.368;9.966;2023-02-15T00:38:30;2.90;99.90
13744;DHT22;6943;52.368;9.966;2023-02-15T00:40:57;2.90;99.90
13744;DHT22;6943;52.368;9.966;2023-02-15T00:43:25;2.90;99.90
13744;DHT22;6943;52.368;9.966;2023-02-15T00:45:51;2.80;99.90
13744;DHT22;6943;52.368;9.966;2023-02-15T00:48:17;2.70;99.90
13744;DHT22;6943;52.368;9.966;2023-02-15T00:50:48;2.60;99.90
13744;DHT22;6943;52.368;9.966;2023-02-15T00:53:14;2.60;99.90
13744;DHT22;6943;52.368;9.966;2023-02-15T00:55:40;2.60;99.90
13744;DHT22;6943;52.368;9.966;2023-02-15T00:58:06;2.50;99.90
13744;DHT22;6943;52.368;9.966;2023-02-15T01:00:31;2.50;99.90
13744;DHT22;6943;52.368;9.966;2023-02-15T01:02:57;2.50;99.90
13744;DHT22;6943;52.368;9.966;2023-02-15T01:05:22;2.40;99.90
13744;DHT22;6943;52.368;9.966;2023-02-15T01:07:48;2.30;99.90
13744;DHT22;6943;52.368;9.966;2023-02-15T01:10:13;2.30;99.90
13744;DHT22;6943;52.368;9.966;2023-02-15T01:12:39;2.40;99.90
13744;DHT22;6943;52.368;9.966;2023-02-15T01:15:04;2.60;99.90
13744;DHT22;6943;52.368;9.966;2023-02-15T01:17:31;2.60;99.90
13744;DHT22;6943;52.368;9.966;2023-02-15T01:19:56;2.50;99.90
13744;DHT22;6943;52.368;9.966;2023-02-15T01:22:22;2.40;99.90
13744;DHT22;6943;52.368;9.966;2023-02-15T01:24:49;2.30;99.90
13744;DHT22;6943;52.368;9.966;2023-02-15T01:27:15;2.20;99.90
13744;DHT22;6943;52.368;9.966;2023-02-15T01:29:40;2.20;99.90
13744;DHT22;6943;52.368;9.966;2023-02-15T01:32:06;2.20;99.90
13744;DHT22;6943;52.368;9.966;2023-02-15T01:34:31;2.20;99.90
13744;DHT22;6943;52.368;9.966;2023-02-15T01:36:57;2.20;99.90
13744;DHT22;6943;52.368;9.966;2023-02-15T01:39:22;2.20;99.90
13744;DHT22;6943;52.368;9.966;2023-02-15T01:41:48;2.20;99.90
13744;DHT22;6943;52.368;9.966;2023-02-15T01:44:49;2.10;99.90
13744;DHT22;6943;52.368;9.966;2023-02-15T01:47:45;2.00;99.90
13744;DHT22;6943;52.368;9.966;2023-02-15T01:53:27;2.00;99.90
13744;DHT22;6943;52.368;9.966;2023-02-15T01:55:58;2.00;99.90
13744;DHT22;6943;52.368;9.966;2023-02-15T01:58:26;2.00;99.90
13744;DHT22;6943;52.368;9.966;2023-02-15T02:00:54;2.00;99.90
13744;DHT22;6943;52.368;9.966;2023-02-15T02:03:40;2.10;99.90
13744;DHT22;6943;52.368;9.966;2023-02-15T02:06:07;2.20;99.90
13744;DHT22;6943;52.368;9.966;2023-02-15T02:08:33;2.30;99.90
13744;DHT22;6943;52.368;9.966;2023-02-15T02:10:59;2.20;99.90
13744;DHT22;6943;52.368;9.966;2023-02-15T02:13:24;2.20;99.90
13744;DHT22;6943;52.368;9.966;2023-02-15T02:18:45;2.20;99.90
13744;DHT22;6943;52.368;9.966;2023-02-15T02:28:03;2.10;99.90
13744;DHT22;6943;52.368;9.966;2023-02-15T02:41:58;1.90;99.90
13744;DHT22;6943;52.368;9.966;2023-02-15T02:44:43;1.90;99.90
13744;DHT22;6943;52.368;9.966;2023-02-15T02:47:22;1.90;99.90
13744;DHT22;6943;52.368;9.966;2023-02-15T02:49:52;1.90;99.90
13744;DHT22;6943;52.368;9.966;2023-02-15T02:52:44;1.70;99.90
13744;DHT22;6943;52.368;9.966;2023-02-15T02:55:15;1.70;99.90
13744;DHT22;6943;52.368;9.966;2023-02-15T02:58:07;1.60;99.90
13744;DHT22;6943;52.368;9.966;2023-02-15T03:00:49;1.60;99.90
13744;DHT22;6943;52.368;9.966;2023-02-15T03:03:20;1.70;99.90
13744;DHT22;6943;52.368;9.966;2023-02-15T03:05:47;1.70;99.90
13744;DHT22;6943;52.368;9.966;2023-02-15T03:08:17;1.60;99.90
13744;DHT22;6943;52.368;9.966;2023-02-15T03:10:48;1.70;99.90
13744;DHT22;6943;52.368;9.966;2023-02-15T03:13:14;1.70;99.90
13744;DHT22;6943;52.368;9.966;2023-02-15T03:15:41;1.80;99.90
13744;DHT22;6943;52.368;9.966;2023-02-15T03:18:30;1.80;99.90
13744;DHT22;6943;52.368;9.966;2023-02-15T03:20:58;1.70;99.90
13744;DHT22;6943;52.368;9.966;2023-02-15T03:23:28;1.60;99.90
13744;DHT22;6943;52.368;9.966;2023-02-15T03:26:03;1.60;99.90
13744;DHT22;6943;52.368;9.966;2023-02-15T03:28:40;1.60;99.90
13744;DHT22;6943;52.368;9.966;2023-02-15T03:31:08;1.50;99.90
13744;DHT22;6943;52.368;9.966;2023-02-15T03:33:36;1.50;99.90
13744;DHT22;6943;52.368;9.966;2023-02-15T03:36:14;1.50;99.90
13744;DHT22;6943;52.368;9.966;2023-02-15T03:41:45;1.50;99.90
13744;DHT22;6943;52.368;9.966;2023-02-15T03:44:29;1.50;99.90
13744;DHT22;6943;52.368;9.966;2023-02-15T03:47:00;1.50;99.90
13744;DHT22;6943;52.368;9.966;2023-02-15T03:49:41;1.60;99.90
13744;DHT22;6943;52.368;9.966;2023-02-15T03:52:08;1.60;99.90
13744;DHT22;6943;52.368;9.966;2023-02-15T03:54:34;1.60;99.90
13744;DHT22;6943;52.368;9.966;2023-02-15T03:57:23;1.70;99.90
13744;DHT22;6943;52.368;9.966;2023-02-15T04:00:18;1.60;99.90
13744;DHT22;6943;52.368;9.966;2023-02-15T04:05:42;1.60;99.90
13744;DHT22;6943;52.368;9.966;2023-02-15T04:08:08;1.60;99.90
13744;DHT22;6943;52.368;9.966;2023-02-15T04:10:34;1.60;99.90
13744;DHT22;6943;52.368;9.966;2023-02-15T04:13:19;1.60;99.90
13744;DHT22;6943;52.368;9.966;2023-02-15T04:15:45;1.50;91.70
13744;DHT22;6943;52.368;9.966;2023-02-15T04:18:42;1.50;43.30
13744;DHT22;6943;52.368;9.966;2023-02-15T04:21:29;1.40;1.00
13744;DHT22;6943;52.368;9.966;2023-02-15T04:24:14;1.50;1.00
13744;DHT22;6943;52.368;9.966;2023-02-15T04:26:59;1.40;1.00
13744;DHT22;6943;52.368;9.966;2023-02-15T04:29:25;1.40;1.00
13744;DHT22;6943;52.368;9.966;2023-02-15T04:31:52;1.30;1.00
13744;DHT22;6943;52.368;9.966;2023-02-15T04:34:17;1.30;1.00
13744;DHT22;6943;52.368;9.966;2023-02-15T04:36:43;1.30;1.00
13744;DHT22;6943;52.368;9.966;2023-02-15T04:39:12;1.30;1.00
13744;DHT22;6943;52.368;9.966;2023-02-15T04:41:38;1.30;1.00
13744;DHT22;6943;52.368;9.966;2023-02-15T04:44:03;1.30;1.00
13744;DHT22;6943;52.368;9.966;2023-02-15T04:46:29;1.30;1.00
13744;DHT22;6943;52.368;9.966;2023-02-15T04:48:55;1.30;1.00
13744;DHT22;6943;52.368;9.966;2023-02-15T04:51:20;1.20;1.00
13744;DHT22;6943;52.368;9.966;2023-02-15T04:53:46;1.20;1.00
13744;DHT22;6943;52.368;9.966;2023-02-15T04:56:11;1.10;1.00
13744;DHT22;6943;52.368;9.966;2023-02-15T04:58:37;1.10;1.00
13744;DHT22;6943;52.368;9.966;2023-02-15T05:01:09;1.10;1.00
13744;DHT22;6943;52.368;9.966;2023-02-15T05:03:34;1.20;1.00
13744;DHT22;6943;52.368;9.966;2023-02-15T05:06:00;1.30;1.00
13744;DHT22;6943;52.368;9.966;2023-02-15T05:08:26;1.40;1.00
13744;DHT22;6943;52.368;9.966;2023-02-15T05:10:51;1.40;1.00
13744;DHT22;6943;52.368;9.966;2023-02-15T05:13:17;1.40;1.00
13744;DHT22;6943;52.368;9.966;2023-02-15T05:15:47;1.40;1.00
13744;DHT22;6943;52.368;9.966;2023-02-15T05:18:13;1.40;1.00
13744;DHT22;6943;52.368;9.966;2023-02-15T05:20:39;1.40;1.00
13744;DHT22;6943;52.368;9.966;2023-02-15T05:23:04;1.40;16.90
13744;DHT22;6943;52.368;9.966;2023-02-15T05:25:30;1.40;6.00
13744;DHT22;6943;52.368;9.966;2023-02-15T05:28:14;1.40;1.00
13744;DHT22;6943;52.368;9.966;2023-02-15T05:30:50;1.30;1.00
13744;DHT22;6943;52.368;9.966;2023-02-15T05:33:16;1.30;1.00
13744;DHT22;6943;52.368;9.966;2023-02-15T05:35:42;1.30;1.00
13744;DHT22;6943;52.368;9.966;2023-02-15T05:38:08;1.40;1.00
13744;DHT22;6943;52.368;9.966;2023-02-15T05:40:34;1.30;1.00
13744;DHT22;6943;52.368;9.966;2023-02-15T05:42:59;1.30;1.00
13744;DHT22;6943;52.368;9.966;2023-02-15T05:45:25;1.10;1.00
13744;DHT22;6943;52.368;9.966;2023-02-15T05:47:50;1.40;1.00
13744;DHT22;6943;52.368;9.966;2023-02-15T05:50:16;1.60;21.40
13744;DHT22;6943;52.368;9.966;2023-02-15T05:52:41;1.70;52.20
13744;DHT22;6943;52.368;9.966;2023-02-15T05:55:07;1.70;71.50
13744;DHT22;6943;52.368;9.966;2023-02-15T05:57:34;1.70;95.70
13744;DHT22;6943;52.368;9.966;2023-02-15T06:00:00;1.80;93.10
13744;DHT22;6943;52.368;9.966;2023-02-15T06:02:26;1.80;90.20
13744;DHT22;6943;52.368;9.966;2023-02-15T06:04:51;1.80;87.90
13744;DHT22;6943;52.368;9.966;2023-02-15T06:07:17;1.80;83.60
13744;DHT22;6943;52.368;9.966;2023-02-15T06:09:42;1.90;94.50
13744;DHT22;6943;52.368;9.966;2023-02-15T06:12:08;1.90;92.00
13744;DHT22;6943;52.368;9.966;2023-02-15T06:14:33;1.90;98.70
13744;DHT22;6943;52.368;9.966;2023-02-15T06:16:59;2.00;65.10
13744;DHT22;6943;52.368;9.966;2023-02-15T06:19:24;2.00;51.90
13744;DHT22;6943;52.368;9.966;2023-02-15T06:21:50;2.00;38.70
13744;DHT22;6943;52.368;9.966;2023-02-15T06:24:15;2.10;17.30
13744;DHT22;6943;52.368;9.966;2023-02-15T06:26:41;2.10;1.00
13744;DHT22;6943;52.368;9.966;2023-02-15T06:29:06;2.00;1.00
13744;DHT22;6943;52.368;9.966;2023-02-15T06:31:32;2.00;1.00
13744;DHT22;6943;52.368;9.966;2023-02-15T06:33:57;2.00;1.00
13744;DHT22;6943;52.368;9.966;2023-02-15T06:36:27;2.10;1.00
13744;DHT22;6943;52.368;9.966;2023-02-15T06:38:54;2.10;1.00
13744;DHT22;6943;52.368;9.966;2023-02-15T06:41:19;2.10;1.00
13744;DHT22;6943;52.368;9.966;2023-02-15T06:43:45;2.10;1.00
13744;DHT22;6943;52.368;9.966;2023-02-15T06:46:10;2.10;1.00
13744;DHT22;6943;52.368;9.966;2023-02-15T06:48:36;2.10;1.00
13744;DHT22;6943;52.368;9.966;2023-02-15T06:51:01;2.10;1.00
13744;DHT22;6943;52.368;9.966;2023-02-15T06:53:26;2.10;1.00
13744;DHT22;6943;52.368;9.966;2023-02-15T06:55:52;2.20;1.00
13744;DHT22;6943;52.368;9.966;2023-02-15T06:58:17;2.10;1.00
13744;DHT22;6943;52.368;9.966;2023-02-15T07:00:44;2.20;1.00
13744;DHT22;6943;52.368;9.966;2023-02-15T07:03:13;2.20;1.00
13744;DHT22;6943;52.368;9.966;2023-02-15T07:05:38;2.30;1.00
13744;DHT22;6943;52.368;9.966;2023-02-15T07:08:04;2.40;1.00
13744;DHT22;6943;52.368;9.966;2023-02-15T07:10:29;2.40;1.00
13744;DHT22;6943;52.368;9.966;2023-02-15T07:12:55;2.50;99.90
13744;DHT22;6943;52.368;9.966;2023-02-15T07:15:21;2.60;53.60
13744;DHT22;6943;52.368;9.966;2023-02-15T07:17:47;2.60;99.90
13744;DHT22;6943;52.368;9.966;2023-02-15T07:20:19;2.70;99.90
13744;DHT22;6943;52.368;9.966;2023-02-15T07:22:45;2.80;1.00
13744;DHT22;6943;52.368;9.966;2023-02-15T07:25:12;2.90;1.00
13744;DHT22;6943;52.368;9.966;2023-02-15T07:27:38;2.90;1.00
13744;DHT22;6943;52.368;9.966;2023-02-15T07:30:06;3.00;99.90
13744;DHT22;6943;52.368;9.966;2023-02-15T07:32:32;3.10;99.90
13744;DHT22;6943;52.368;9.966;2023-02-15T07:34:58;3.20;1.00
13744;DHT22;6943;52.368;9.966;2023-02-15T07:37:24;3.20;99.90
13744;DHT22;6943;52.368;9.966;2023-02-15T07:39:50;3.30;99.90
13744;DHT22;6943;52.368;9.966;2023-02-15T07:42:15;3.40;1.00
13744;DHT22;6943;52.368;9.966;2023-02-15T07:44:41;3.40;1.00
13744;DHT22;6943;52.368;9.966;2023-02-15T07:47:07;3.50;99.90
13744;DHT22;6943;52.368;9.966;2023-02-15T07:49:33;3.50;99.90
13744;DHT22;6943;52.368;9.966;2023-02-15T07:52:00;3.70;1.00
13744;DHT22;6943;52.368;9.966;2023-02-15T07:54:27;4.00;1.00
13744;DHT22;6943;52.368;9.966;2023-02-15T07:56:52;5.50;1.00
13744;DHT22;6943;52.368;9.966;2023-02-15T07:59:17;7.20;99.90
13744;DHT22;6943;52.368;9.966;2023-02-15T08:01:43;8.50;1.00
13744;DHT22;6943;52.368;9.966;2023-02-15T08:04:08;10.30;1.00
13744;DHT22;6943;52.368;9.966;2023-02-15T08:06:37;11.30;99.90
13744;DHT22;6943;52.368;9.966;2023-02-15T08:09:08;12.30;99.90
13744;DHT22;6943;52.368;9.966;2023-02-15T08:11:35;13.40;99.90
13744;DHT22;6943;52.368;9.966;2023-02-15T08:14:08;14.10;99.90
13744;DHT22;6943;52.368;9.966;2023-02-15T08:19:05;14.10;99.90
13744;DHT22;6943;52.368;9.966;2023-02-15T08:21:31;14.10;99.90
13744;DHT22;6943;52.368;9.966;2023-02-15T08:23:58;14.10;99.90
13744;DHT22;6943;52.368;9.966;2023-02-15T08:26:25;14.40;99.90
13744;DHT22;6943;52.368;9.966;2023-02-15T08:28:51;14.30;99.90
13744;DHT22;6943;52.368;9.966;2023-02-15T08:31:17;13.30;99.90
13744;DHT22;6943;52.368;9.966;2023-02-15T08:33:44;12.80;99.90
13744;DHT22;6943;52.368;9.966;2023-02-15T08:36:15;13.10;99.90
13744;DHT22;6943;52.368;9.966;2023-02-15T08:38:42;13.80;99.90
13744;DHT22;6943;52.368;9.966;2023-02-15T08:41:25;14.20;99.90
13744;DHT22;6943;52.368;9.966;2023-02-15T08:43:55;15.10;99.90
13744;DHT22;6943;52.368;9.966;2023-02-15T08:46:23;15.90;99.90
13744;DHT22;6943;52.368;9.966;2023-02-15T08:48:49;16.00;99.90
13744;DHT22;6943;52.368;9.966;2023-02-15T08:51:17;16.00;99.90
13744;DHT22;6943;52.368;9.966;2023-02-15T08:53:46;14.80;99.90
13744;DHT22;6943;52.368;9.966;2023-02-15T08:56:14;15.20;99.90
13744;DHT22;6943;52.368;9.966;2023-02-15T08:58:40;15.40;99.90
13744;DHT22;6943;52.368;9.966;2023-02-15T09:01:14;15.80;99.90
13744;DHT22;6943;52.368;9.966;2023-02-15T09:03:43;15.70;99.90
13744;DHT22;6943;52.368;9.966;2023-02-15T09:06:09;16.30;99.90
13744;DHT22;6943;52.368;9.966;2023-02-15T09:08:34;16.30;99.90
13744;DHT22;6943;52.368;9.966;2023-02-15T09:11:17;16.30;99.90
13744;DHT22;6943;52.368;9.966;2023-02-15T09:13:48;16.50;99.90
13744;DHT22;6943;52.368;9.966;2023-02-15T09:16:14;16.60;99.90
13744;DHT22;6943;52.368;9.966;2023-02-15T09:18:42;16.40;99.90
13744;DHT22;6943;52.368;9.966;2023-02-15T09:21:12;15.80;99.90
13744;DHT22;6943;52.368;9.966;2023-02-15T09:23:42;15.50;99.90
13744;DHT22;6943;52.368;9.966;2023-02-15T09:26:19;15.80;99.90
13744;DHT22;6943;52.368;9.966;2023-02-15T09:28:46;15.80;99.90
13744;DHT22;6943;52.368;9.966;2023-02-15T09:31:24;16.20;99.90
13744;DHT22;6943;52.368;9.966;2023-02-15T09:33:50;16.00;99.90
13744;DHT22;6943;52.368;9.966;2023-02-15T09:36:24;16.50;99.90
13744;DHT22;6943;52.368;9.966;2023-02-15T09:39:14;16.00;99.90
13744;DHT22;6943;52.368;9.966;2023-02-15T09:50:25;15.30;99.90
13744;DHT22;6943;52.368;9.966;2023-02-15T09:58:01;15.50;99.90
13744;DHT22;6943;52.368;9.966;2023-02-15T10:00:53;15.20;99.90
13744;DHT22;6943;52.368;9.966;2023-02-15T10:06:38;15.00;99.90
13744;DHT22;6943;52.368;9.966;2023-02-15T10:09:30;15.00;99.90
13744;DHT22;6943;52.368;9.966;2023-02-15T10:12:21;13.90;99.90
13744;DHT22;6943;52.368;9.966;2023-02-15T10:18:11;12.50;99.90
13744;DHT22;6943;52.368;9.966;2023-02-15T10:20:53;11.70;99.90
13744;DHT22;6943;52.368;9.966;2023-02-15T10:23:44;11.20;99.90
13744;DHT22;6943;52.368;9.966;2023-02-15T10:26:19;10.70;99.90
13744;DHT22;6943;52.368;9.966;2023-02-15T10:29:04;10.10;99.90
13744;DHT22;6943;52.368;9.966;2023-02-15T10:32:04;9.50;99.90
13744;DHT22;6943;52.368;9.966;2023-02-15T10:34:39;9.20;99.90
13744;DHT22;6943;52.368;9.966;2023-02-15T10:37:28;8.80;99.90
13744;DHT22;6943;52.368;9.966;2023-02-15T10:40:11;8.60;99.90
13744;DHT22;6943;52.368;9.966;2023-02-15T10:42:59;8.60;99.90
13744;DHT22;6943;52.368;9.966;2023-02-15T10:45:58;8.50;1.00
13744;DHT22;6943;52.368;9.966;2023-02-15T10:51:29;8.50;1.00
13744;DHT22;6943;52.368;9.966;2023-02-15T10:54:20;8.60;1.00
13744;DHT22;6943;52.368;9.966;2023-02-15T10:57:05;8.70;1.00
13744;DHT22;6943;52.368;9.966;2023-02-15T11:02:22;8.70;1.00
13744;DHT22;6943;52.368;9.966;2023-02-15T11:07:33;8.80;1.00
13744;DHT22;6943;52.368;9.966;2023-02-15T11:10:27;8.80;1.00
13744;DHT22;6943;52.368;9.966;2023-02-15T11:12:55;8.80;1.00
13744;DHT22;6943;52.368;9.966;2023-02-15T11:15:39;8.90;1.00
13744;DHT22;6943;52.368;9.966;2023-02-15T11:21:22;8.90;1.00
13744;DHT22;6943;52.368;9.966;2023-02-15T11:23:50;8.90;1.00
13744;DHT22;6943;52.368;9.966;2023-02-15T11:28:54;9.00;1.00
13744;DHT22;6943;52.368;9.966;2023-02-15T11:31:23;9.00;1.00
13744;DHT22;6943;52.368;9.966;2023-02-15T11:33:57;9.00;1.00
13744;DHT22;6943;52.368;9.966;2023-02-15T11:36:31;9.10;1.00
13744;DHT22;6943;52.368;9.966;2023-02-15T11:39:01;9.00;1.00
13744;DHT22;6943;52.368;9.966;2023-02-15T11:41:35;9.00;1.00
13744;DHT22;6943;52.368;9.966;2023-02-15T11:44:10;9.10;1.00
13744;DHT22;6943;52.368;9.966;2023-02-15T11:46:37;9.10;1.00
13744;DHT22;6943;52.368;9.966;2023-02-15T11:51:53;9.00;1.00
13744;DHT22;6943;52.368;9.966;2023-02-15T11:54:23;9.10;1.00
13744;DHT22;6943;52.368;9.966;2023-02-15T11:56:50;9.10;1.00
13744;DHT22;6943;52.368;9.966;2023-02-15T11:59:27;9.10;1.00
13744;DHT22;6943;52.368;9.966;2023-02-15T12:01:53;9.20;1.00
13744;DHT22;6943;52.368;9.966;2023-02-15T12:04:26;9.20;1.00
13744;DHT22;6943;52.368;9.966;2023-02-15T12:06:59;9.20;1.00
13744;DHT22;6943;52.368;9.966;2023-02-15T12:09:36;9.20;1.00
13744;DHT22;6943;52.368;9.966;2023-02-15T12:12:26;9.30;1.00
13744;DHT22;6943;52.368;9.966;2023-02-15T12:14:58;9.30;1.00
13744;DHT22;6943;52.368;9.966;2023-02-15T12:17:26;9.30;1.00
13744;DHT22;6943;52.368;9.966;2023-02-15T12:19:56;9.40;1.00
13744;DHT22;6943;52.368;9.966;2023-02-15T12:22:30;9.40;1.00
13744;DHT22;6943;52.368;9.966;2023-02-15T12:24:59;9.40;1.00
13744;DHT22;6943;52.368;9.966;2023-02-15T12:27:30;9.30;1.00
13744;DHT22;6943;52.368;9.966;2023-02-15T12:32:54;9.20;1.00
13744;DHT22;6943;52.368;9.966;2023-02-15T12:35:35;9.20;1.00
13744;DHT22;6943;52.368;9.966;2023-02-15T12:38:19;9.20;1.00
13744;DHT22;6943;52.368;9.966;2023-02-15T12:41:22;9.20;1.00
13744;DHT22;6943;52.368;9.966;2023-02-15T12:44:03;9.40;1.00
13744;DHT22;6943;52.368;9.966;2023-02-15T12:46:28;9.40;1.00
13744;DHT22;6943;52.368;9.966;2023-02-15T12:51:52;9.30;1.00
13744;DHT22;6943;52.368;9.966;2023-02-15T12:54:32;9.30;1.00
13744;DHT22;6943;52.368;9.966;2023-02-15T12:56:58;9.30;1.00
13744;DHT22;6943;52.368;9.966;2023-02-15T12:59:25;9.30;1.00
13744;DHT22;6943;52.368;9.966;2023-02-15T13:01:53;9.40;1.00
13744;DHT22;6943;52.368;9.966;2023-02-15T13:04:24;9.40;1.00
13744;DHT22;6943;52.368;9.966;2023-02-15T13:06:52;9.40;1.00
13744;DHT22;6943;52.368;9.966;2023-02-15T13:09:20;9.30;1.00
13744;DHT22;6943;52.368;9.966;2023-02-15T13:11:48;9.40;1.00
13744;DHT22;6943;52.368;9.966;2023-02-15T13:14:18;9.50;1.00
13744;DHT22;6943;52.368;9.966;2023-02-15T13:16:45;9.50;1.00
13744;DHT22;6943;52.368;9.966;2023-02-15T13:21:47;9.60;1.00
13744;DHT22;6943;52.368;9.966;2023-02-15T13:24:28;9.70;1.00
13744;DHT22;6943;52.368;9.966;2023-02-15T13:26:57;9.70;1.00
13744;DHT22;6943;52.368;9.966;2023-02-15T13:29:24;9.70;1.00
13744;DHT22;6943;52.368;9.966;2023-02-15T13:31:53;9.60;1.00
13744;DHT22;6943;52.368;9.966;2023-02-15T13:34:31;9.60;1.00
13744;DHT22;6943;52.368;9.966;2023-02-15T13:37:15;9.50;1.00
13744;DHT22;6943;52.368;9.966;2023-02-15T13:39:51;9.60;1.00
13744;DHT22;6943;52.368;9.966;2023-02-15T13:42:24;9.60;1.00
13744;DHT22;6943;52.368;9.966;2023-02-15T13:45:09;9.60;1.00
13744;DHT22;6943;52.368;9.966;2023-02-15T13:50:38;9.30;1.00
13744;DHT22;6943;52.368;9.966;2023-02-15T13:55:52;9.30;1.00
13744;DHT22;6943;52.368;9.966;2023-02-15T13:58:45;9.30;1.00
13744;DHT22;6943;52.368;9.966;2023-02-15T14:01:43;9.30;1.00
13744;DHT22;6943;52.368;9.966;2023-02-15T14:07:30;9.40;1.00
13744;DHT22;6943;52.368;9.966;2023-02-15T14:15:53;9.40;1.00
13744;DHT22;6943;52.368;9.966;2023-02-15T14:18:35;9.50;1.00
13744;DHT22;6943;52.368;9.966;2023-02-15T14:21:19;9.40;1.00
13744;DHT22;6943;52.368;9.966;2023-02-15T14:31:38;9.40;1.00
13744;DHT22;6943;52.368;9.966;2023-02-15T14:34:22;9.40;1.00
13744;DHT22;6943;52.368;9.966;2023-02-15T14:36:50;9.30;1.00
13744;DHT22;6943;52.368;9.966;2023-02-15T14:43:05;9.20;1.00
13744;DHT22;6943;52.368;9.966;2023-02-15T14:45:40;9.10;1.00
13744;DHT22;6943;52.368;9.966;2023-02-15T14:50:55;8.90;1.00
13744;DHT22;6943;52.368;9.966;2023-02-15T15:01:33;8.80;1.00
13744;DHT22;6943;52.368;9.966;2023-02-15T15:04:08;8.90;1.00
13744;DHT22;6943;52.368;9.966;2023-02-15T15:06:37;8.90;1.00
13744;DHT22;6943;52.368;9.966;2023-02-15T15:09:37;8.90;1.00
13744;DHT22;6943;52.368;9.966;2023-02-15T15:14:48;8.90;1.00
13744;DHT22;6943;52.368;9.966;2023-02-15T15:20:14;9.00;1.00
13744;DHT22;6943;52.368;9.966;2023-02-15T15:31:21;9.00;1.00
13744;DHT22;6943;52.368;9.966;2023-02-15T15:34:17;9.00;1.00
13744;DHT22;6943;52.368;9.966;2023-02-15T15:40:01;8.90;1.00
13744;DHT22;6943;52.368;9.966;2023-02-15T15:45:40;8.80;1.00
13744;DHT22;6943;52.368;9.966;2023-02-15T15:48:16;8.70;1.00
13744;DHT22;6943;52.368;9.966;2023-02-15T15:50:44;8.60;1.00
13744;DHT22;6943;52.368;9.966;2023-02-15T15:53:20;8.60;49.30
13744;DHT22;6943;52.368;9.966;2023-02-15T15:55:47;8.50;99.90
13744;DHT22;6943;52.368;9.966;2023-02-15T15:58:17;8.40;99.90
13744;DHT22;6943;52.368;9.966;2023-02-15T16:01:10;8.30;99.90
13744;DHT22;6943;52.368;9.966;2023-02-15T16:03:38;8.20;99.90
13744;DHT22;6943;52.368;9.966;2023-02-15T16:06:25;8.10;99.90
13744;DHT22;6943;52.368;9.966;2023-02-15T16:08:50;8.00;99.90
13744;DHT22;6943;52.368;9.966;2023-02-15T16:11:23;7.90;99.90
13744;DHT22;6943;52.368;9.966;2023-02-15T16:13:49;7.90;1.00
13744;DHT22;6943;52.368;9.966;2023-02-15T16:16:21;7.80;1.00
13744;DHT22;6943;52.368;9.966;2023-02-15T16:18:47;7.70;1.00
13744;DHT22;6943;52.368;9.966;2023-02-15T16:21:22;7.60;1.00
13744;DHT22;6943;52.368;9.966;2023-02-15T16:29:33;7.30;1.00
13744;DHT22;6943;52.368;9.966;2023-02-15T16:32:05;7.20;1.00
13744;DHT22;6943;52.368;9.966;2023-02-15T16:34:31;7.20;1.00
13744;DHT22;6943;52.368;9.966;2023-02-15T16:37:19;7.10;26.60
13744;DHT22;6943;52.368;9.966;2023-02-15T16:39:47;7.10;35.60
13744;DHT22;6943;52.368;9.966;2023-02-15T16:42:16;7.10;14.00
13744;DHT22;6943;52.368;9.966;2023-02-15T16:44:44;7.00;10.20
13744;DHT22;6943;52.368;9.966;2023-02-15T16:47:22;6.90;23.00
13744;DHT22;6943;52.368;9.966;2023-02-15T16:49:51;6.90;78.60
13744;DHT22;6943;52.368;9.966;2023-02-15T16:52:25;6.80;99.90
13744;DHT22;6943;52.368;9.966;2023-02-15T16:54:57;6.80;99.90
13744;DHT22;6943;52.368;9.966;2023-02-15T16:57:33;6.70;99.90
13744;DHT22;6943;52.368;9.966;2023-02-15T17:00:08;6.70;99.90
13744;DHT22;6943;52.368;9.966;2023-02-15T17:02:53;6.70;99.90
13744;DHT22;6943;52.368;9.966;2023-02-15T17:05:19;6.60;99.90
13744;DHT22;6943;52.368;9.966;2023-02-15T17:08:06;6.50;99.90
13744;DHT22;6943;52.368;9.966;2023-02-15T17:10:40;6.50;99.90
13744;DHT22;6943;52.368;9.966;2023-02-15T17:13:13;6.50;99.90
13744;DHT22;6943;52.368;9.966;2023-02-15T17:18:23;6.50;99.90
13744;DHT22;6943;52.368;9.966;2023-02-15T17:20:51;6.40;99.90
13744;DHT22;6943;52.368;9.966;2023-02-15T17:23:33;6.40;99.90
13744;DHT22;6943;52.368;9.966;2023-02-15T17:26:10;6.30;99.90
13744;DHT22;6943;52.368;9.966;2023-02-15T17:28:36;6.30;99.90
13744;DHT22;6943;52.368;9.966;2023-02-15T17:31:06;6.30;99.90
13744;DHT22;6943;52.368;9.966;2023-02-15T17:36:19;6.20;1.00
13744;DHT22;6943;52.368;9.966;2023-02-15T17:39:20;6.20;1.00
13744;DHT22;6943;52.368;9.966;2023-02-15T17:41:53;6.10;1.00
13744;DHT22;6943;52.368;9.966;2023-02-15T17:44:18;6.10;1.00
13744;DHT22;6943;52.368;9.966;2023-02-15T17:46:44;6.10;1.00
13744;DHT22;6943;52.368;9.966;2023-02-15T17:49:22;6.10;1.00
13744;DHT22;6943;52.368;9.966;2023-02-15T17:51:48;6.10;1.00
13744;DHT22;6943;52.368;9.966;2023-02-15T17:54:14;6.00;1.00
13744;DHT22;6943;52.368;9.966;2023-02-15T17:56:58;6.00;1.00
13744;DHT22;6943;52.368;9.966;2023-02-15T18:01:59;5.90;1.00
13744;DHT22;6943;52.368;9.966;2023-02-15T18:04:44;5.90;1.00
13744;DHT22;6943;52.368;9.966;2023-02-15T18:07:28;5.90;1.00
13744;DHT22;6943;52.368;9.966;2023-02-15T18:10:15;5.90;1.00
13744;DHT22;6943;52.368;9.966;2023-02-15T18:12:59;5.90;1.00
13744;DHT22;6943;52.368;9.966;2023-02-15T18:15:25;5.90;1.00
13744;DHT22;6943;52.368;9.966;2023-02-15T18:17:51;5.90;1.00
13744;DHT22;6943;52.368;9.966;2023-02-15T18:20:18;5.80;1.00
13744;DHT22;6943;52.368;9.966;2023-02-15T18:22:44;5.80;1.00
13744;DHT22;6943;52.368;9.966;2023-02-15T18:25:16;5.70;1.00
13744;DHT22;6943;52.368;9.966;2023-02-15T18:27:42;5.60;1.00
13744;DHT22;6943;52.368;9.966;2023-02-15T18:30:17;5.60;1.00
13744;DHT22;6943;52.368;9.966;2023-02-15T18:32:44;5.50;1.00
13744;DHT22;6943;52.368;9.966;2023-02-15T18:35:19;5.40;1.00
13744;DHT22;6943;52.368;9.966;2023-02-15T18:37:46;5.40;18.00
13744;DHT22;6943;52.368;9.966;2023-02-15T18:40:17;5.30;78.90
13744;DHT22;6943;52.368;9.966;2023-02-15T18:42:42;5.30;99.90
13744;DHT22;6943;52.368;9.966;2023-02-15T18:45:23;5.20;99.90
13744;DHT22;6943;52.368;9.966;2023-02-15T18:47:50;5.20;99.90
13744;DHT22;6943;52.368;9.966;2023-02-15T18:50:17;5.20;99.90
13744;DHT22;6943;52.368;9.966;2023-02-15T18:52:45;5.20;99.90
13744;DHT22;6943;52.368;9.966;2023-02-15T18:55:18;5.20;99.90
13744;DHT22;6943;52.368;9.966;2023-02-15T18:57:48;5.20;99.90
13744;DHT22;6943;52.368;9.966;2023-02-15T19:00:25;5.20;99.90
13744;DHT22;6943;52.368;9.966;2023-02-15T19:02:52;5.30;99.90
13744;DHT22;6943;52.368;9.966;2023-02-15T19:05:18;5.30;99.90